This is the latest recevied weather packets stored in our database for station/object KK4KTV-13. If no packets are shown the sender has not sent any weather packets the latest 10 day(s).
| Time | Temp. | Humidity | Pressure | Rain* | Wind** | Luminosity | Snow |
|---|---|---|---|---|---|---|---|
| 1777671797 | 16.67° C | 40% | 1012.7 hPa | 0 mm | - | 104 W/m² | - |
| 1777671493 | 16.67° C | 40% | 1012.6 hPa | 0 mm | - | 394 W/m² | - |
| 1777671190 | 16.67° C | 40% | 1012.6 hPa | 0 mm | - | 283 W/m² | - |
| 1777670886 | 16.67° C | 39% | 1012.7 hPa | 0 mm | - | 317 W/m² | - |
| 1777670582 | 17.22° C | 41% | 1012.6 hPa | 0 mm | - | 398 W/m² | - |
| 1777670280 | 17.22° C | 39% | 1012.6 hPa | 0 mm | - | 327 W/m² | - |
| 1777669977 | 16.67° C | 41% | 1012.7 hPa | 0 mm | - | 463 W/m² | - |
| 1777669674 | 17.22° C | 44% | 1012.5 hPa | 0 mm | - | 502 W/m² | - |
| 1777669370 | 17.22° C | 43% | 1012.6 hPa | 0 mm | - | 391 W/m² | - |
| 1777669066 | 16.67° C | 45% | 1012.6 hPa | 0 mm | - | 415 W/m² | - |
| 1777668764 | 16.67° C | 45% | 1012.7 hPa | 0 mm | - | 188 W/m² | - |
| 1777668460 | 16.67° C | 45% | 1012.8 hPa | 0 mm | - | 471 W/m² | - |
| 1777668157 | 17.22° C | 45% | 1012.7 hPa | 0 mm | - | 487 W/m² | - |
| 1777667853 | 17.22° C | 45% | 1012.7 hPa | 0 mm | - | 374 W/m² | - |
| 1777667551 | 16.67° C | 47% | 1012.8 hPa | 0 mm | - | 495 W/m² | - |
| 1777667248 | 17.22° C | 46% | 1013 hPa | 0 mm | - | 171 W/m² | - |
| 1777666945 | 17.22° C | 49% | 1012.8 hPa | 0 mm | - | 604 W/m² | - |
| 1777666641 | 17.22° C | 49% | 1012.8 hPa | 0 mm | - | 482 W/m² | - |
| 1777666338 | 17.22° C | 49% | 1012.8 hPa | 0 mm | - | 671 W/m² | - |
| 1777666035 | 17.78° C | 49% | 1012.7 hPa | 0 mm | - | 628 W/m² | - |
| 1777665732 | 17.22° C | 52% | 1012.7 hPa | 0 mm | - | 441 W/m² | - |
| 1777665430 | 16.11° C | 53% | 1013.1 hPa | 0 mm | - | 435 W/m² | - |
| 1777665126 | 16.11° C | 56% | 1013.1 hPa | 0 mm | - | 208 W/m² | - |
| 1777664822 | 15.56° C | 57% | 1013.4 hPa | 0 mm | - | 188 W/m² | - |
| 1777664517 | 15.56° C | 56% | 1013.3 hPa | 0 mm | - | 150 W/m² | - |
* Rain latest hour (hover to see other rain measurements)
** Current wind speed in m/s (hover to see current wind gust speed)